sensor_id;sensor_type;location;lat;lon;timestamp;temperature;humidity
51215;DHT22;41093;47.444;19.134;2022-08-03T00:01:57;20.70;69.70
51215;DHT22;41093;47.444;19.134;2022-08-03T00:04:23;20.60;70.00
51215;DHT22;41093;47.444;19.134;2022-08-03T00:06:49;20.60;70.20
51215;DHT22;41093;47.444;19.134;2022-08-03T00:09:15;20.50;70.40
51215;DHT22;41093;47.444;19.134;2022-08-03T00:11:41;20.40;70.70
51215;DHT22;41093;47.444;19.134;2022-08-03T00:14:07;20.40;70.80
51215;DHT22;41093;47.444;19.134;2022-08-03T00:16:33;20.40;71.30
51215;DHT22;41093;47.444;19.134;2022-08-03T00:18:59;20.30;71.30
51215;DHT22;41093;47.444;19.134;2022-08-03T00:21:25;20.30;71.70
51215;DHT22;41093;47.444;19.134;2022-08-03T00:23:51;20.30;71.90
51215;DHT22;41093;47.444;19.134;2022-08-03T00:26:17;20.20;72.40
51215;DHT22;41093;47.444;19.134;2022-08-03T00:28:42;20.20;72.30
51215;DHT22;41093;47.444;19.134;2022-08-03T00:31:08;20.20;72.50
51215;DHT22;41093;47.444;19.134;2022-08-03T00:33:34;20.10;72.60
51215;DHT22;41093;47.444;19.134;2022-08-03T00:36:00;20.00;72.90
51215;DHT22;41093;47.444;19.134;2022-08-03T00:38:25;19.90;73.20
51215;DHT22;41093;47.444;19.134;2022-08-03T00:40:51;19.90;73.70
51215;DHT22;41093;47.444;19.134;2022-08-03T00:43:17;19.90;73.70
51215;DHT22;41093;47.444;19.134;2022-08-03T00:45:43;19.90;73.90
51215;DHT22;41093;47.444;19.134;2022-08-03T00:48:10;19.80;74.20
51215;DHT22;41093;47.444;19.134;2022-08-03T00:50:41;19.70;74.40
51215;DHT22;41093;47.444;19.134;2022-08-03T00:53:09;19.70;74.60
51215;DHT22;41093;47.444;19.134;2022-08-03T00:55:37;19.70;75.00
51215;DHT22;41093;47.444;19.134;2022-08-03T00:58:03;19.70;75.30
51215;DHT22;41093;47.444;19.134;2022-08-03T01:00:33;19.60;75.40
51215;DHT22;41093;47.444;19.134;2022-08-03T01:03:01;19.60;75.60
51215;DHT22;41093;47.444;19.134;2022-08-03T01:05:28;19.60;75.90
51215;DHT22;41093;47.444;19.134;2022-08-03T01:11:11;19.50;76.30
51215;DHT22;41093;47.444;19.134;2022-08-03T01:16:31;19.50;76.70
51215;DHT22;41093;47.444;19.134;2022-08-03T01:21:51;19.40;77.10
51215;DHT22;41093;47.444;19.134;2022-08-03T01:27:53;19.40;77.30
51215;DHT22;41093;47.444;19.134;2022-08-03T01:30:23;19.30;77.40
51215;DHT22;41093;47.444;19.134;2022-08-03T01:33:01;19.30;77.50
51215;DHT22;41093;47.444;19.134;2022-08-03T01:38:23;19.30;77.80
51215;DHT22;41093;47.444;19.134;2022-08-03T01:40:52;19.20;77.60
51215;DHT22;41093;47.444;19.134;2022-08-03T01:43:22;19.20;77.50
51215;DHT22;41093;47.444;19.134;2022-08-03T01:45:50;19.20;77.50
51215;DHT22;41093;47.444;19.134;2022-08-03T01:48:16;19.10;77.60
51215;DHT22;41093;47.444;19.134;2022-08-03T01:50:44;19.10;77.40
51215;DHT22;41093;47.444;19.134;2022-08-03T01:53:14;19.10;77.20
51215;DHT22;41093;47.444;19.134;2022-08-03T01:55:45;19.10;76.90
51215;DHT22;41093;47.444;19.134;2022-08-03T01:58:13;19.10;76.70
51215;DHT22;41093;47.444;19.134;2022-08-03T02:00:40;19.00;76.50
51215;DHT22;41093;47.444;19.134;2022-08-03T02:03:06;19.00;76.80
51215;DHT22;41093;47.444;19.134;2022-08-03T02:05:33;19.00;76.80
51215;DHT22;41093;47.444;19.134;2022-08-03T02:08:01;18.90;76.90
51215;DHT22;41093;47.444;19.134;2022-08-03T02:10:29;18.90;77.20
51215;DHT22;41093;47.444;19.134;2022-08-03T02:12:57;18.90;77.50
51215;DHT22;41093;47.444;19.134;2022-08-03T02:15:24;18.90;77.40
51215;DHT22;41093;47.444;19.134;2022-08-03T02:17:51;18.80;77.10
51215;DHT22;41093;47.444;19.134;2022-08-03T02:20:18;18.80;77.40
51215;DHT22;41093;47.444;19.134;2022-08-03T02:22:45;18.80;77.40
51215;DHT22;41093;47.444;19.134;2022-08-03T02:25:13;18.80;77.40
51215;DHT22;41093;47.444;19.134;2022-08-03T02:27:44;18.70;77.40
51215;DHT22;41093;47.444;19.134;2022-08-03T02:30:12;18.70;77.30
51215;DHT22;41093;47.444;19.134;2022-08-03T02:32:40;18.70;77.50
51215;DHT22;41093;47.444;19.134;2022-08-03T02:35:10;18.60;77.50
51215;DHT22;41093;47.444;19.134;2022-08-03T02:37:46;18.60;77.70
51215;DHT22;41093;47.444;19.134;2022-08-03T02:40:14;18.60;78.00
51215;DHT22;41093;47.444;19.134;2022-08-03T02:42:41;18.60;78.40
51215;DHT22;41093;47.444;19.134;2022-08-03T02:45:10;18.60;78.40
51215;DHT22;41093;47.444;19.134;2022-08-03T02:47:40;18.60;78.40
51215;DHT22;41093;47.444;19.134;2022-08-03T02:50:09;18.50;79.00
51215;DHT22;41093;47.444;19.134;2022-08-03T02:52:36;18.50;78.90
51215;DHT22;41093;47.444;19.134;2022-08-03T02:55:03;18.50;79.30
51215;DHT22;41093;47.444;19.134;2022-08-03T02:57:30;18.40;78.90
51215;DHT22;41093;47.444;19.134;2022-08-03T03:00:00;18.40;79.00
51215;DHT22;41093;47.444;19.134;2022-08-03T03:02:27;18.40;79.00
51215;DHT22;41093;47.444;19.134;2022-08-03T03:04:55;18.40;79.20
51215;DHT22;41093;47.444;19.134;2022-08-03T03:07:21;18.40;79.50
51215;DHT22;41093;47.444;19.134;2022-08-03T03:09:47;18.40;79.40
51215;DHT22;41093;47.444;19.134;2022-08-03T03:12:14;18.40;79.50
51215;DHT22;41093;47.444;19.134;2022-08-03T03:14:41;18.40;80.00
51215;DHT22;41093;47.444;19.134;2022-08-03T03:17:10;18.30;79.90
51215;DHT22;41093;47.444;19.134;2022-08-03T03:19:38;18.30;80.00
51215;DHT22;41093;47.444;19.134;2022-08-03T03:22:04;18.30;80.10
51215;DHT22;41093;47.444;19.134;2022-08-03T03:24:33;18.30;80.30
51215;DHT22;41093;47.444;19.134;2022-08-03T03:26:59;18.30;80.20
51215;DHT22;41093;47.444;19.134;2022-08-03T03:29:25;18.30;80.00
51215;DHT22;41093;47.444;19.134;2022-08-03T03:31:52;18.30;80.00
51215;DHT22;41093;47.444;19.134;2022-08-03T03:34:18;18.30;80.50
51215;DHT22;41093;47.444;19.134;2022-08-03T03:36:44;18.40;80.10
51215;DHT22;41093;47.444;19.134;2022-08-03T03:39:10;18.30;80.10
51215;DHT22;41093;47.444;19.134;2022-08-03T03:41:36;18.30;80.30
51215;DHT22;41093;47.444;19.134;2022-08-03T03:44:02;18.40;80.40
51215;DHT22;41093;47.444;19.134;2022-08-03T03:46:28;18.40;80.50
51215;DHT22;41093;47.444;19.134;2022-08-03T03:48:54;18.40;80.70
51215;DHT22;41093;47.444;19.134;2022-08-03T03:51:20;18.40;80.40
51215;DHT22;41093;47.444;19.134;2022-08-03T03:54:04;18.40;80.50
51215;DHT22;41093;47.444;19.134;2022-08-03T03:56:32;18.50;80.20
51215;DHT22;41093;47.444;19.134;2022-08-03T03:58:57;18.60;80.30
51215;DHT22;41093;47.444;19.134;2022-08-03T04:01:24;18.60;80.00
51215;DHT22;41093;47.444;19.134;2022-08-03T04:03:50;18.70;80.20
51215;DHT22;41093;47.444;19.134;2022-08-03T04:06:15;18.80;80.20
51215;DHT22;41093;47.444;19.134;2022-08-03T04:09:01;18.90;79.80
51215;DHT22;41093;47.444;19.134;2022-08-03T04:11:53;19.30;79.70
51215;DHT22;41093;47.444;19.134;2022-08-03T04:16:52;20.40;76.70
51215;DHT22;41093;47.444;19.134;2022-08-03T04:19:31;21.10;74.50
51215;DHT22;41093;47.444;19.134;2022-08-03T04:22:04;22.40;70.10
51215;DHT22;41093;47.444;19.134;2022-08-03T04:24:38;23.40;65.80
51215;DHT22;41093;47.444;19.134;2022-08-03T04:27:08;24.50;62.10
51215;DHT22;41093;47.444;19.134;2022-08-03T04:29:37;25.40;59.50
51215;DHT22;41093;47.444;19.134;2022-08-03T04:32:05;26.40;55.40
51215;DHT22;41093;47.444;19.134;2022-08-03T04:34:32;27.70;50.80
51215;DHT22;41093;47.444;19.134;2022-08-03T04:37:00;29.00;47.90
51215;DHT22;41093;47.444;19.134;2022-08-03T04:39:30;30.30;44.80
51215;DHT22;41093;47.444;19.134;2022-08-03T04:41:59;31.40;41.80
51215;DHT22;41093;47.444;19.134;2022-08-03T04:44:27;32.40;40.00
51215;DHT22;41093;47.444;19.134;2022-08-03T04:46:53;33.40;38.20
51215;DHT22;41093;47.444;19.134;2022-08-03T04:49:20;33.80;37.10
51215;DHT22;41093;47.444;19.134;2022-08-03T04:51:48;34.20;36.70
51215;DHT22;41093;47.444;19.134;2022-08-03T04:54:14;35.00;35.40
51215;DHT22;41093;47.444;19.134;2022-08-03T04:56:43;35.80;33.90
51215;DHT22;41093;47.444;19.134;2022-08-03T04:59:09;36.40;32.50
51215;DHT22;41093;47.444;19.134;2022-08-03T05:01:35;37.20;31.20
51215;DHT22;41093;47.444;19.134;2022-08-03T05:04:02;37.60;30.80
51215;DHT22;41093;47.444;19.134;2022-08-03T05:06:28;37.40;30.20
51215;DHT22;41093;47.444;19.134;2022-08-03T05:08:54;37.70;30.30
51215;DHT22;41093;47.444;19.134;2022-08-03T05:11:20;38.10;29.90
51215;DHT22;41093;47.444;19.134;2022-08-03T05:13:46;38.90;28.80
51215;DHT22;41093;47.444;19.134;2022-08-03T05:16:12;39.60;28.40
51215;DHT22;41093;47.444;19.134;2022-08-03T05:18:39;40.40;27.00
51215;DHT22;41093;47.444;19.134;2022-08-03T05:21:05;41.00;26.40
51215;DHT22;41093;47.444;19.134;2022-08-03T05:23:31;41.70;25.80
51215;DHT22;41093;47.444;19.134;2022-08-03T05:25:56;41.90;25.20
51215;DHT22;41093;47.444;19.134;2022-08-03T05:28:22;42.50;24.70
51215;DHT22;41093;47.444;19.134;2022-08-03T05:30:48;42.90;23.80
51215;DHT22;41093;47.444;19.134;2022-08-03T05:33:14;43.00;23.90
51215;DHT22;41093;47.444;19.134;2022-08-03T05:35:39;43.70;23.40
51215;DHT22;41093;47.444;19.134;2022-08-03T05:38:06;43.70;23.30
51215;DHT22;41093;47.444;19.134;2022-08-03T05:40:31;43.90;23.10
51215;DHT22;41093;47.444;19.134;2022-08-03T05:42:58;44.40;22.70
51215;DHT22;41093;47.444;19.134;2022-08-03T05:45:24;45.00;22.30
51215;DHT22;41093;47.444;19.134;2022-08-03T05:47:50;45.60;21.80
51215;DHT22;41093;47.444;19.134;2022-08-03T05:50:17;45.00;21.80
51215;DHT22;41093;47.444;19.134;2022-08-03T05:52:44;45.50;21.90
51215;DHT22;41093;47.444;19.134;2022-08-03T05:55:10;45.60;21.50
51215;DHT22;41093;47.444;19.134;2022-08-03T05:57:37;46.50;20.80
51215;DHT22;41093;47.444;19.134;2022-08-03T06:00:07;46.10;21.20
51215;DHT22;41093;47.444;19.134;2022-08-03T06:02:34;46.60;21.00
51215;DHT22;41093;47.444;19.134;2022-08-03T06:04:59;47.00;20.60
51215;DHT22;41093;47.444;19.134;2022-08-03T06:07:25;47.10;20.50
51215;DHT22;41093;47.444;19.134;2022-08-03T06:09:51;47.70;20.00
51215;DHT22;41093;47.444;19.134;2022-08-03T06:12:17;47.60;19.80
51215;DHT22;41093;47.444;19.134;2022-08-03T06:14:42;47.30;20.50
51215;DHT22;41093;47.444;19.134;2022-08-03T06:17:08;48.50;19.20
51215;DHT22;41093;47.444;19.134;2022-08-03T06:19:34;48.50;19.20
51215;DHT22;41093;47.444;19.134;2022-08-03T06:22:00;47.90;19.10
51215;DHT22;41093;47.444;19.134;2022-08-03T06:24:26;47.20;19.90
51215;DHT22;41093;47.444;19.134;2022-08-03T06:26:51;48.20;19.00
51215;DHT22;41093;47.444;19.134;2022-08-03T06:29:17;48.50;19.30
51215;DHT22;41093;47.444;19.134;2022-08-03T06:31:43;48.40;19.00
51215;DHT22;41093;47.444;19.134;2022-08-03T06:34:09;48.30;19.00
51215;DHT22;41093;47.444;19.134;2022-08-03T06:36:34;48.50;19.50
51215;DHT22;41093;47.444;19.134;2022-08-03T06:39:01;48.50;18.60
51215;DHT22;41093;47.444;19.134;2022-08-03T06:41:27;48.20;18.80
51215;DHT22;41093;47.444;19.134;2022-08-03T06:43:54;48.80;18.40
51215;DHT22;41093;47.444;19.134;2022-08-03T06:46:19;48.00;19.10
51215;DHT22;41093;47.444;19.134;2022-08-03T06:48:45;47.20;19.50
51215;DHT22;41093;47.444;19.134;2022-08-03T06:51:11;46.30;20.00
51215;DHT22;41093;47.444;19.134;2022-08-03T06:53:37;46.00;20.50
51215;DHT22;41093;47.444;19.134;2022-08-03T06:56:07;47.30;19.70
51215;DHT22;41093;47.444;19.134;2022-08-03T06:58:33;47.90;19.40
51215;DHT22;41093;47.444;19.134;2022-08-03T07:00:59;47.50;19.20
51215;DHT22;41093;47.444;19.134;2022-08-03T07:03:25;48.50;18.50
51215;DHT22;41093;47.444;19.134;2022-08-03T07:05:51;49.20;18.60
51215;DHT22;41093;47.444;19.134;2022-08-03T07:08:17;49.50;18.10
51215;DHT22;41093;47.444;19.134;2022-08-03T07:10:44;48.30;18.50
51215;DHT22;41093;47.444;19.134;2022-08-03T07:13:10;49.70;17.50
51215;DHT22;41093;47.444;19.134;2022-08-03T07:15:36;49.80;17.30
51215;DHT22;41093;47.444;19.134;2022-08-03T07:18:02;49.90;17.00
51215;DHT22;41093;47.444;19.134;2022-08-03T07:20:27;48.80;18.00
51215;DHT22;41093;47.444;19.134;2022-08-03T07:22:53;49.00;17.90
51215;DHT22;41093;47.444;19.134;2022-08-03T07:25:19;49.10;17.50
51215;DHT22;41093;47.444;19.134;2022-08-03T07:27:46;49.60;17.40
51215;DHT22;41093;47.444;19.134;2022-08-03T07:30:14;49.70;17.30
51215;DHT22;41093;47.444;19.134;2022-08-03T07:32:40;49.60;17.50
51215;DHT22;41093;47.444;19.134;2022-08-03T07:35:07;48.30;18.00
51215;DHT22;41093;47.444;19.134;2022-08-03T07:37:33;48.60;17.90
51215;DHT22;41093;47.444;19.134;2022-08-03T07:39:59;49.30;17.70
51215;DHT22;41093;47.444;19.134;2022-08-03T07:42:26;49.20;17.40
51215;DHT22;41093;47.444;19.134;2022-08-03T07:44:52;49.30;17.40
51215;DHT22;41093;47.444;19.134;2022-08-03T07:47:24;48.90;17.60
51215;DHT22;41093;47.444;19.134;2022-08-03T07:49:50;48.20;17.90
51215;DHT22;41093;47.444;19.134;2022-08-03T07:52:16;47.30;18.60
51215;DHT22;41093;47.444;19.134;2022-08-03T07:55:00;48.90;17.70
51215;DHT22;41093;47.444;19.134;2022-08-03T07:57:26;49.80;17.00
51215;DHT22;41093;47.444;19.134;2022-08-03T07:59:51;49.00;17.50
51215;DHT22;41093;47.444;19.134;2022-08-03T08:02:17;50.80;16.40
51215;DHT22;41093;47.444;19.134;2022-08-03T08:04:43;51.20;16.20
51215;DHT22;41093;47.444;19.134;2022-08-03T08:07:10;52.20;15.80
51215;DHT22;41093;47.444;19.134;2022-08-03T08:09:36;52.40;15.60
51215;DHT22;41093;47.444;19.134;2022-08-03T08:12:02;51.20;16.20
51215;DHT22;41093;47.444;19.134;2022-08-03T08:14:28;50.30;17.00
51215;DHT22;41093;47.444;19.134;2022-08-03T08:16:54;51.10;16.60
51215;DHT22;41093;47.444;19.134;2022-08-03T08:19:20;52.20;15.60
51215;DHT22;41093;47.444;19.134;2022-08-03T08:21:45;52.10;15.80
51215;DHT22;41093;47.444;19.134;2022-08-03T08:24:11;53.00;16.10
51215;DHT22;41093;47.444;19.134;2022-08-03T08:26:37;53.40;15.20
51215;DHT22;41093;47.444;19.134;2022-08-03T08:29:03;52.20;15.60
51215;DHT22;41093;47.444;19.134;2022-08-03T08:31:29;52.20;15.60
51215;DHT22;41093;47.444;19.134;2022-08-03T08:33:55;52.50;15.30
51215;DHT22;41093;47.444;19.134;2022-08-03T08:36:21;52.20;15.40
51215;DHT22;41093;47.444;19.134;2022-08-03T08:38:46;51.30;15.70
51215;DHT22;41093;47.444;19.134;2022-08-03T08:41:13;51.40;15.70
51215;DHT22;41093;47.444;19.134;2022-08-03T08:43:40;52.30;15.50
51215;DHT22;41093;47.444;19.134;2022-08-03T08:46:07;51.40;15.60
51215;DHT22;41093;47.444;19.134;2022-08-03T08:48:40;51.20;16.00
51215;DHT22;41093;47.444;19.134;2022-08-03T08:51:07;51.50;15.50
51215;DHT22;41093;47.444;19.134;2022-08-03T08:53:35;51.30;16.20
51215;DHT22;41093;47.444;19.134;2022-08-03T08:56:01;52.40;16.20
51215;DHT22;41093;47.444;19.134;2022-08-03T08:58:29;53.50;14.70
51215;DHT22;41093;47.444;19.134;2022-08-03T09:00:55;53.20;14.60
51215;DHT22;41093;47.444;19.134;2022-08-03T09:03:21;54.10;14.20
51215;DHT22;41093;47.444;19.134;2022-08-03T09:05:48;52.60;14.90
51215;DHT22;41093;47.444;19.134;2022-08-03T09:08:14;51.80;16.00
51215;DHT22;41093;47.444;19.134;2022-08-03T09:10:39;51.90;15.50
51215;DHT22;41093;47.444;19.134;2022-08-03T09:13:07;51.40;15.70
51215;DHT22;41093;47.444;19.134;2022-08-03T09:15:33;50.20;15.80
51215;DHT22;41093;47.444;19.134;2022-08-03T09:18:01;50.90;16.10
51215;DHT22;41093;47.444;19.134;2022-08-03T09:20:30;51.60;16.00
51215;DHT22;41093;47.444;19.134;2022-08-03T09:23:05;52.50;15.50
51215;DHT22;41093;47.444;19.134;2022-08-03T09:25:33;53.30;14.60
51215;DHT22;41093;47.444;19.134;2022-08-03T09:28:14;52.60;15.20
51215;DHT22;41093;47.444;19.134;2022-08-03T09:30:42;52.60;14.80
51215;DHT22;41093;47.444;19.134;2022-08-03T09:33:13;52.60;15.30
51215;DHT22;41093;47.444;19.134;2022-08-03T09:35:45;53.80;15.20
51215;DHT22;41093;47.444;19.134;2022-08-03T09:38:16;53.80;14.50
51215;DHT22;41093;47.444;19.134;2022-08-03T09:40:44;53.00;14.70
51215;DHT22;41093;47.444;19.134;2022-08-03T09:43:10;52.00;15.10
51215;DHT22;41093;47.444;19.134;2022-08-03T09:45:38;50.80;16.20
51215;DHT22;41093;47.444;19.134;2022-08-03T09:48:23;49.80;16.10
51215;DHT22;41093;47.444;19.134;2022-08-03T09:51:00;49.40;16.50
51215;DHT22;41093;47.444;19.134;2022-08-03T09:53:27;50.70;15.90
51215;DHT22;41093;47.444;19.134;2022-08-03T09:56:00;51.70;15.90
51215;DHT22;41093;47.444;19.134;2022-08-03T09:58:27;52.30;15.50
51215;DHT22;41093;47.444;19.134;2022-08-03T10:03:21;52.10;14.60
51215;DHT22;41093;47.444;19.134;2022-08-03T10:05:47;50.40;15.50
51215;DHT22;41093;47.444;19.134;2022-08-03T10:08:17;48.00;16.70
51215;DHT22;41093;47.444;19.134;2022-08-03T10:10:45;44.90;18.70
51215;DHT22;41093;47.444;19.134;2022-08-03T10:13:13;41.50;21.50
51215;DHT22;41093;47.444;19.134;2022-08-03T10:15:39;39.70;23.70
51215;DHT22;41093;47.444;19.134;2022-08-03T10:18:05;38.30;25.70
51215;DHT22;41093;47.444;19.134;2022-08-03T10:20:53;37.60;26.40
51215;DHT22;41093;47.444;19.134;2022-08-03T10:23:20;38.50;25.70
51215;DHT22;41093;47.444;19.134;2022-08-03T10:25:50;41.60;24.20
51215;DHT22;41093;47.444;19.134;2022-08-03T10:28:18;44.30;20.40
51215;DHT22;41093;47.444;19.134;2022-08-03T10:30:47;46.80;19.00
51215;DHT22;41093;47.444;19.134;2022-08-03T10:33:20;48.70;18.40
51215;DHT22;41093;47.444;19.134;2022-08-03T10:35:53;50.00;17.50
51215;DHT22;41093;47.444;19.134;2022-08-03T10:38:32;51.00;17.60
51215;DHT22;41093;47.444;19.134;2022-08-03T10:41:01;51.00;17.20
51215;DHT22;41093;47.444;19.134;2022-08-03T10:43:39;51.20;16.80
51215;DHT22;41093;47.444;19.134;2022-08-03T10:46:07;51.40;16.20
51215;DHT22;41093;47.444;19.134;2022-08-03T10:48:33;50.60;16.00
51215;DHT22;41093;47.444;19.134;2022-08-03T10:51:00;49.40;17.20
51215;DHT22;41093;47.444;19.134;2022-08-03T10:53:37;47.70;18.80
51215;DHT22;41093;47.444;19.134;2022-08-03T10:56:04;47.60;19.50
51215;DHT22;41093;47.444;19.134;2022-08-03T10:58:50;46.60;19.20
51215;DHT22;41093;47.444;19.134;2022-08-03T11:01:17;45.70;19.40
51215;DHT22;41093;47.444;19.134;2022-08-03T11:06:25;43.40;21.70
51215;DHT22;41093;47.444;19.134;2022-08-03T11:11:37;40.60;23.80
51215;DHT22;41093;47.444;19.134;2022-08-03T11:16:37;38.50;26.00
51215;DHT22;41093;47.444;19.134;2022-08-03T11:19:08;37.40;27.10
51215;DHT22;41093;47.444;19.134;2022-08-03T11:27:15;36.30;28.70
51215;DHT22;41093;47.444;19.134;2022-08-03T11:40:49;38.30;27.30
51215;DHT22;41093;47.444;19.134;2022-08-03T11:46:09;38.40;26.40
51215;DHT22;41093;47.444;19.134;2022-08-03T11:48:42;38.40;25.70
51215;DHT22;41093;47.444;19.134;2022-08-03T11:51:23;38.00;26.60
51215;DHT22;41093;47.444;19.134;2022-08-03T11:53:57;37.90;26.90
51215;DHT22;41093;47.444;19.134;2022-08-03T11:56:24;38.00;25.70
51215;DHT22;41093;47.444;19.134;2022-08-03T11:58:55;37.50;27.10
51215;DHT22;41093;47.444;19.134;2022-08-03T12:01:23;36.70;27.80
51215;DHT22;41093;47.444;19.134;2022-08-03T12:03:49;36.70;26.70
51215;DHT22;41093;47.444;19.134;2022-08-03T12:06:16;37.00;27.60
51215;DHT22;41093;47.444;19.134;2022-08-03T12:08:45;37.20;25.90
51215;DHT22;41093;47.444;19.134;2022-08-03T12:11:13;37.20;26.30
51215;DHT22;41093;47.444;19.134;2022-08-03T12:13:49;37.30;26.40
51215;DHT22;41093;47.444;19.134;2022-08-03T12:16:24;37.10;26.10
51215;DHT22;41093;47.444;19.134;2022-08-03T12:19:01;37.60;27.20
51215;DHT22;41093;47.444;19.134;2022-08-03T12:21:27;38.00;26.60
51215;DHT22;41093;47.444;19.134;2022-08-03T12:24:03;38.40;26.10
51215;DHT22;41093;47.444;19.134;2022-08-03T12:26:41;37.90;25.50
51215;DHT22;41093;47.444;19.134;2022-08-03T12:29:07;37.30;26.00
51215;DHT22;41093;47.444;19.134;2022-08-03T12:31:34;36.70;27.30
51215;DHT22;41093;47.444;19.134;2022-08-03T12:34:03;35.80;27.40
51215;DHT22;41093;47.444;19.134;2022-08-03T12:36:32;35.00;28.50
51215;DHT22;41093;47.444;19.134;2022-08-03T12:39:04;34.40;29.70
51215;DHT22;41093;47.444;19.134;2022-08-03T12:41:36;34.00;29.60
51215;DHT22;41093;47.444;19.134;2022-08-03T12:44:03;33.30;30.70
51215;DHT22;41093;47.444;19.134;2022-08-03T12:46:37;33.20;31.10
51215;DHT22;41093;47.444;19.134;2022-08-03T12:49:11;33.00;32.50
51215;DHT22;41093;47.444;19.134;2022-08-03T12:54:15;32.90;32.50
51215;DHT22;41093;47.444;19.134;2022-08-03T12:59:35;32.70;34.30
51215;DHT22;41093;47.444;19.134;2022-08-03T13:02:02;32.60;35.40
51215;DHT22;41093;47.444;19.134;2022-08-03T13:04:34;32.50;34.50
51215;DHT22;41093;47.444;19.134;2022-08-03T13:07:07;32.70;35.50
51215;DHT22;41093;47.444;19.134;2022-08-03T13:09:47;32.80;32.80
51215;DHT22;41093;47.444;19.134;2022-08-03T13:12:14;32.90;33.60
51215;DHT22;41093;47.444;19.134;2022-08-03T13:14:42;32.90;32.10
51215;DHT22;41093;47.444;19.134;2022-08-03T13:17:08;33.00;32.90
51215;DHT22;41093;47.444;19.134;2022-08-03T13:19:35;33.10;34.20
51215;DHT22;41093;47.444;19.134;2022-08-03T13:22:34;33.40;33.00
51215;DHT22;41093;47.444;19.134;2022-08-03T13:25:01;33.60;31.00
51215;DHT22;41093;47.444;19.134;2022-08-03T13:27:28;33.60;31.60
51215;DHT22;41093;47.444;19.134;2022-08-03T13:29:54;33.60;31.90
51215;DHT22;41093;47.444;19.134;2022-08-03T13:32:21;33.90;31.00
51215;DHT22;41093;47.444;19.134;2022-08-03T13:34:47;34.00;30.90
51215;DHT22;41093;47.444;19.134;2022-08-03T13:37:13;34.20;29.60
51215;DHT22;41093;47.444;19.134;2022-08-03T13:39:40;34.40;30.40
51215;DHT22;41093;47.444;19.134;2022-08-03T13:42:06;34.60;29.50
51215;DHT22;41093;47.444;19.134;2022-08-03T13:44:32;34.80;29.90
51215;DHT22;41093;47.444;19.134;2022-08-03T13:46:58;34.90;28.70
51215;DHT22;41093;47.444;19.134;2022-08-03T13:49:26;35.10;28.40
51215;DHT22;41093;47.444;19.134;2022-08-03T13:51:52;35.00;29.20
51215;DHT22;41093;47.444;19.134;2022-08-03T13:54:17;35.00;29.30
51215;DHT22;41093;47.444;19.134;2022-08-03T13:56:44;34.90;27.80
51215;DHT22;41093;47.444;19.134;2022-08-03T13:59:17;34.90;29.20
51215;DHT22;41093;47.444;19.134;2022-08-03T14:01:45;34.80;28.20
51215;DHT22;41093;47.444;19.134;2022-08-03T14:04:11;34.70;27.90
51215;DHT22;41093;47.444;19.134;2022-08-03T14:06:37;34.50;28.00
51215;DHT22;41093;47.444;19.134;2022-08-03T14:09:02;34.40;28.50
51215;DHT22;41093;47.444;19.134;2022-08-03T14:11:28;34.50;28.00
51215;DHT22;41093;47.444;19.134;2022-08-03T14:13:54;34.30;29.20
51215;DHT22;41093;47.444;19.134;2022-08-03T14:16:20;34.30;29.80
51215;DHT22;41093;47.444;19.134;2022-08-03T14:18:46;34.20;29.50
51215;DHT22;41093;47.444;19.134;2022-08-03T14:21:12;34.30;28.60
51215;DHT22;41093;47.444;19.134;2022-08-03T14:23:38;34.30;28.90
51215;DHT22;41093;47.444;19.134;2022-08-03T14:26:05;34.20;28.40
51215;DHT22;41093;47.444;19.134;2022-08-03T14:28:31;34.00;30.80
51215;DHT22;41093;47.444;19.134;2022-08-03T14:30:57;33.90;30.50
51215;DHT22;41093;47.444;19.134;2022-08-03T14:33:23;33.80;31.10
51215;DHT22;41093;47.444;19.134;2022-08-03T14:35:50;33.70;30.10
51215;DHT22;41093;47.444;19.134;2022-08-03T14:38:17;33.60;31.00
51215;DHT22;41093;47.444;19.134;2022-08-03T14:40:43;33.40;30.50
51215;DHT22;41093;47.444;19.134;2022-08-03T14:43:09;33.40;30.80
51215;DHT22;41093;47.444;19.134;2022-08-03T14:45:35;33.40;31.20
51215;DHT22;41093;47.444;19.134;2022-08-03T14:48:01;33.40;30.10
51215;DHT22;41093;47.444;19.134;2022-08-03T14:50:28;33.40;31.00
51215;DHT22;41093;47.444;19.134;2022-08-03T14:52:54;33.40;31.50
51215;DHT22;41093;47.444;19.134;2022-08-03T14:55:20;33.30;31.20
51215;DHT22;41093;47.444;19.134;2022-08-03T14:57:46;33.30;30.50
51215;DHT22;41093;47.444;19.134;2022-08-03T15:00:12;33.20;29.80
51215;DHT22;41093;47.444;19.134;2022-08-03T15:02:38;33.00;30.20
51215;DHT22;41093;47.444;19.134;2022-08-03T15:05:04;33.00;30.30
51215;DHT22;41093;47.444;19.134;2022-08-03T15:07:29;32.80;30.00
51215;DHT22;41093;47.444;19.134;2022-08-03T15:09:55;32.60;30.40
51215;DHT22;41093;47.444;19.134;2022-08-03T15:12:21;32.60;31.50
51215;DHT22;41093;47.444;19.134;2022-08-03T15:14:47;32.50;30.60
51215;DHT22;41093;47.444;19.134;2022-08-03T15:17:12;32.50;30.70
51215;DHT22;41093;47.444;19.134;2022-08-03T15:19:38;32.50;31.20
51215;DHT22;41093;47.444;19.134;2022-08-03T15:22:05;32.40;31.00
51215;DHT22;41093;47.444;19.134;2022-08-03T15:24:30;32.40;31.00
51215;DHT22;41093;47.444;19.134;2022-08-03T15:26:56;32.40;32.20
51215;DHT22;41093;47.444;19.134;2022-08-03T15:29:22;32.40;32.40
51215;DHT22;41093;47.444;19.134;2022-08-03T15:31:48;32.40;32.10
51215;DHT22;41093;47.444;19.134;2022-08-03T15:34:14;32.30;31.40
51215;DHT22;41093;47.444;19.134;2022-08-03T15:36:39;32.30;31.40
51215;DHT22;41093;47.444;19.134;2022-08-03T15:39:05;32.20;31.10
51215;DHT22;41093;47.444;19.134;2022-08-03T15:41:31;32.10;30.80
51215;DHT22;41093;47.444;19.134;2022-08-03T15:43:57;32.10;30.90
51215;DHT22;41093;47.444;19.134;2022-08-03T15:46:23;32.00;30.90
51215;DHT22;41093;47.444;19.134;2022-08-03T15:48:48;32.00;30.40
51215;DHT22;41093;47.444;19.134;2022-08-03T15:51:14;32.00;30.70
51215;DHT22;41093;47.444;19.134;2022-08-03T15:53:40;32.00;30.50
51215;DHT22;41093;47.444;19.134;2022-08-03T15:56:06;32.00;30.40
51215;DHT22;41093;47.444;19.134;2022-08-03T15:58:34;32.00;31.40
51215;DHT22;41093;47.444;19.134;2022-08-03T16:01:00;31.90;32.70
51215;DHT22;41093;47.444;19.134;2022-08-03T16:03:27;31.90;32.50
51215;DHT22;41093;47.444;19.134;2022-08-03T16:06:02;31.90;29.70
51215;DHT22;41093;47.444;19.134;2022-08-03T16:08:28;32.00;29.90
51215;DHT22;41093;47.444;19.134;2022-08-03T16:10:54;32.00;31.10
51215;DHT22;41093;47.444;19.134;2022-08-03T16:13:20;32.00;30.80